createdAt,value
2023-02-12T00:00:06.897Z,-0.28
2023-02-12T00:02:33.695Z,-0.40
2023-02-12T00:05:00.392Z,-0.53
2023-02-12T00:07:31.118Z,-0.45
2023-02-12T00:09:57.765Z,-0.32
2023-02-12T00:12:24.506Z,-0.37
2023-02-12T00:14:51.369Z,-0.39
2023-02-12T00:17:17.921Z,-0.42
2023-02-12T00:19:44.638Z,-0.45
2023-02-12T00:22:11.201Z,-0.46
2023-02-12T00:24:37.753Z,-0.08
2023-02-12T00:27:04.536Z,-0.02
2023-02-12T00:29:31.120Z,0.10
2023-02-12T00:31:57.915Z,0.11
2023-02-12T00:34:24.718Z,0.22
2023-02-12T00:36:51.303Z,0.19
2023-02-12T00:39:17.885Z,0.20
2023-02-12T00:41:44.450Z,0.12
2023-02-12T00:44:11.031Z,0.38
2023-02-12T00:46:38.127Z,0.41
2023-02-12T00:49:04.739Z,0.34
2023-02-12T00:51:31.321Z,0.35
2023-02-12T00:53:58.096Z,0.25
2023-02-12T00:56:24.689Z,0.32
2023-02-12T00:58:51.201Z,0.12
2023-02-12T01:01:18.506Z,0.28
2023-02-12T01:03:45.394Z,0.16
2023-02-12T01:06:12.019Z,-0.06
2023-02-12T01:08:38.633Z,-0.06
2023-02-12T01:11:06.237Z,-0.06
2023-02-12T01:13:34.735Z,-0.12
2023-02-12T01:16:20.740Z,-0.30
2023-02-12T01:18:48.546Z,-0.22
2023-02-12T01:21:34.955Z,-0.28
2023-02-12T01:24:02.015Z,-0.38
2023-02-12T01:26:29.880Z,-0.38
2023-02-12T01:29:02.290Z,-0.43
2023-02-12T01:31:34.267Z,-0.28
2023-02-12T01:34:01.160Z,-0.32
2023-02-12T01:36:29.403Z,-0.31
2023-02-12T01:38:57.923Z,-0.12
2023-02-12T01:41:27.277Z,-0.11
2023-02-12T01:44:14.366Z,-0.29
2023-02-12T01:46:42.319Z,-0.23
2023-02-12T01:49:16.677Z,-0.29
2023-02-12T01:51:45.480Z,-0.22
2023-02-12T01:54:15.181Z,-0.11
2023-02-12T01:56:42.747Z,0.09
2023-02-12T01:59:10.165Z,0.30
2023-02-12T02:01:37.090Z,0.65
2023-02-12T02:04:14.073Z,0.82
2023-02-12T02:06:49.476Z,0.99
2023-02-12T02:09:18.796Z,0.96
2023-02-12T02:12:04.055Z,0.94
2023-02-12T02:14:33.784Z,0.76
2023-02-12T02:17:21.754Z,0.98
2023-02-12T02:19:55.391Z,0.92
2023-02-12T02:22:46.768Z,0.83
2023-02-12T02:25:40.964Z,0.78
2023-02-12T02:28:39.911Z,0.76
2023-02-12T02:31:12.016Z,0.79
2023-02-12T02:34:26.015Z,0.70
2023-02-12T02:37:04.453Z,0.56
2023-02-12T02:39:39.993Z,0.46
2023-02-12T02:42:18.615Z,0.50
2023-02-12T02:44:55.387Z,0.49
2023-02-12T02:47:28.068Z,0.59
2023-02-12T02:49:59.617Z,0.38
2023-02-12T02:52:37.422Z,0.34
2023-02-12T02:55:07.893Z,0.18
2023-02-12T02:57:41.799Z,0.22
2023-02-12T03:00:15.850Z,0.10
2023-02-12T03:02:49.280Z,0.18
2023-02-12T03:05:31.336Z,0.16
2023-02-12T03:08:18.272Z,0.08
2023-02-12T03:10:49.815Z,-0.09
2023-02-12T03:13:32.837Z,-0.13
2023-02-12T03:16:02.414Z,-0.27
2023-02-12T03:18:36.387Z,-0.14
2023-02-12T03:21:12.101Z,-0.23
2023-02-12T03:23:47.316Z,-0.46
2023-02-12T03:26:22.681Z,-0.28
2023-02-12T03:28:49.448Z,-0.33
2023-02-12T03:31:21.676Z,-0.30
2023-02-12T03:34:04.252Z,-0.26
2023-02-12T03:36:50.502Z,-0.26
2023-02-12T03:39:31.089Z,-0.12
2023-02-12T03:42:13.581Z,-0.01
2023-02-12T03:44:46.603Z,0.15
2023-02-12T03:47:19.652Z,0.26
2023-02-12T03:49:59.234Z,0.33
2023-02-12T03:52:26.070Z,0.48
2023-02-12T03:54:52.796Z,0.37
2023-02-12T03:57:30.828Z,0.60
2023-02-12T03:59:59.208Z,0.57
2023-02-12T04:02:26.309Z,0.61
2023-02-12T04:04:53.060Z,0.60
2023-02-12T04:07:19.721Z,0.66
2023-02-12T04:09:46.331Z,0.64
2023-02-12T04:12:39.518Z,0.78
2023-02-12T04:15:07.352Z,0.84
2023-02-12T04:18:12.089Z,0.96
2023-02-12T04:20:49.622Z,0.93
2023-02-12T04:23:51.801Z,0.88
2023-02-12T04:26:24.201Z,0.81
2023-02-12T04:29:17.445Z,0.72
2023-02-12T04:32:06.572Z,0.69
2023-02-12T04:34:40.717Z,0.79
2023-02-12T04:37:18.758Z,0.71
2023-02-12T04:39:47.210Z,0.75
2023-02-12T04:42:14.059Z,0.75
2023-02-12T04:44:43.111Z,0.78
2023-02-12T04:47:16.981Z,0.76
2023-02-12T04:49:43.627Z,0.77
2023-02-12T04:52:10.308Z,0.75
2023-02-12T04:54:37.317Z,0.79
2023-02-12T04:57:04.368Z,0.80
2023-02-12T04:59:30.925Z,0.76
2023-02-12T05:01:57.766Z,0.69
2023-02-12T05:04:24.332Z,0.69
2023-02-12T05:06:50.895Z,0.63
2023-02-12T05:09:20.253Z,0.65
2023-02-12T05:11:46.913Z,0.71
2023-02-12T05:14:14.044Z,0.77
2023-02-12T05:16:40.712Z,0.75
2023-02-12T05:19:09.553Z,0.96
2023-02-12T05:21:37.879Z,0.83
2023-02-12T05:24:04.696Z,0.85
2023-02-12T05:26:31.339Z,0.77
2023-02-12T05:28:58.000Z,0.77
2023-02-12T05:31:25.058Z,0.69
2023-02-12T05:33:52.395Z,0.72
2023-02-12T05:36:22.740Z,0.74
2023-02-12T05:38:50.204Z,0.80
2023-02-12T05:41:20.151Z,0.81
2023-02-12T05:43:49.630Z,0.90
2023-02-12T05:46:18.193Z,1.08
2023-02-12T05:48:45.459Z,1.00
2023-02-12T05:51:17.975Z,1.09
2023-02-12T05:53:44.610Z,1.06
2023-02-12T05:56:26.318Z,1.09
2023-02-12T05:59:02.337Z,1.01
2023-02-12T06:01:40.278Z,0.97
2023-02-12T06:04:11.051Z,0.98
2023-02-12T06:06:37.709Z,1.01
2023-02-12T06:09:04.372Z,1.02
2023-02-12T06:11:31.112Z,1.04
2023-02-12T06:13:57.776Z,1.04
2023-02-12T06:16:27.234Z,1.02
2023-02-12T06:18:55.620Z,0.89
2023-02-12T06:21:26.277Z,0.95
2023-02-12T06:23:53.359Z,0.93
2023-02-12T06:26:20.912Z,0.96
2023-02-12T06:28:48.244Z,1.01
2023-02-12T06:31:24.229Z,0.95
2023-02-12T06:33:51.662Z,1.03
2023-02-12T06:36:18.828Z,0.93
2023-02-12T06:38:46.140Z,0.84
2023-02-12T06:41:13.114Z,0.85
2023-02-12T06:43:39.877Z,0.82
2023-02-12T06:46:07.248Z,0.70
2023-02-12T06:48:34.479Z,0.89
2023-02-12T06:51:09.116Z,0.81
2023-02-12T06:53:36.181Z,0.88
2023-02-12T06:56:04.880Z,0.99
2023-02-12T06:58:31.916Z,1.12
2023-02-12T07:01:08.600Z,1.13
2023-02-12T07:03:35.345Z,1.43
2023-02-12T07:06:03.759Z,1.42
2023-02-12T07:08:30.350Z,1.39
2023-02-12T07:10:57.042Z,1.49
2023-02-12T07:13:23.661Z,1.66
2023-02-12T07:15:50.501Z,1.81
2023-02-12T07:18:17.134Z,1.95
2023-02-12T07:20:43.726Z,1.88
2023-02-12T07:23:13.525Z,2.01
2023-02-12T07:25:40.302Z,1.99
2023-02-12T07:28:06.905Z,2.21
2023-02-12T07:30:33.450Z,2.21
2023-02-12T07:33:00.288Z,2.34
2023-02-12T07:35:26.860Z,2.39
2023-02-12T07:37:53.489Z,2.56
2023-02-12T07:40:20.200Z,2.71
2023-02-12T07:42:47.421Z,2.73
2023-02-12T07:45:14.051Z,2.97
2023-02-12T07:47:41.268Z,2.84
2023-02-12T07:50:08.147Z,2.92
2023-02-12T07:52:34.746Z,3.35
2023-02-12T07:55:01.705Z,3.51
2023-02-12T07:57:28.453Z,3.57
2023-02-12T07:59:55.015Z,3.65
2023-02-12T08:02:21.623Z,3.79
2023-02-12T08:04:48.374Z,3.69
2023-02-12T08:07:15.133Z,3.88
2023-02-12T08:09:41.895Z,3.82
2023-02-12T08:12:08.482Z,3.79
2023-02-12T08:14:35.169Z,3.81
2023-02-12T08:17:01.858Z,3.68
2023-02-12T08:19:28.496Z,3.58
2023-02-12T08:21:56.521Z,3.70
2023-02-12T08:24:24.093Z,3.83
2023-02-12T08:26:51.427Z,3.72
2023-02-12T08:29:21.134Z,3.89
2023-02-12T08:31:49.797Z,3.84
2023-02-12T08:34:16.426Z,3.95
2023-02-12T08:36:44.284Z,3.98
2023-02-12T08:39:11.428Z,4.07
2023-02-12T08:41:38.027Z,4.08
2023-02-12T08:44:05.795Z,4.09
2023-02-12T08:46:35.925Z,4.23
2023-02-12T08:49:10.121Z,4.14
2023-02-12T08:51:38.661Z,4.28
2023-02-12T08:54:08.100Z,4.29
2023-02-12T08:56:35.695Z,4.27
2023-02-12T08:59:05.617Z,4.31
2023-02-12T09:01:38.566Z,4.26
2023-02-12T09:04:06.641Z,4.44
2023-02-12T09:06:34.956Z,4.54
2023-02-12T09:09:02.407Z,4.44
2023-02-12T09:11:32.998Z,4.97
2023-02-12T09:14:01.994Z,5.31
2023-02-12T09:16:30.532Z,5.84
2023-02-12T09:18:58.004Z,5.68
2023-02-12T09:21:24.886Z,5.66
2023-02-12T09:23:52.048Z,5.69
2023-02-12T09:26:21.810Z,5.24
2023-02-12T09:28:50.054Z,5.07
2023-02-12T09:31:20.926Z,5.56
2023-02-12T09:33:51.199Z,6.07
2023-02-12T09:36:18.927Z,6.20
2023-02-12T09:38:45.616Z,5.93
2023-02-12T09:41:36.847Z,6.00
2023-02-12T09:44:28.190Z,6.16
2023-02-12T09:47:07.105Z,6.16
2023-02-12T09:50:05.882Z,6.02
2023-02-12T09:52:35.223Z,6.35
2023-02-12T09:55:02.551Z,6.11
2023-02-12T09:57:34.605Z,5.86
2023-02-12T10:00:37.324Z,5.98
2023-02-12T10:03:11.712Z,5.85
2023-02-12T10:05:43.526Z,5.73
2023-02-12T10:08:35.429Z,5.75
2023-02-12T10:11:34.856Z,5.95
2023-02-12T10:14:20.411Z,6.06
2023-02-12T10:17:11.811Z,6.01
2023-02-12T10:20:02.838Z,6.17
2023-02-12T10:22:56.573Z,6.24
2023-02-12T10:25:42.569Z,6.25
2023-02-12T10:28:18.226Z,6.39
2023-02-12T10:31:00.848Z,6.12
2023-02-12T10:33:35.540Z,6.20
2023-02-12T10:36:29.288Z,6.33
2023-02-12T10:39:01.580Z,6.63
2023-02-12T10:41:30.186Z,6.64
2023-02-12T10:43:57.662Z,6.58
2023-02-12T10:46:24.590Z,6.54
2023-02-12T10:48:58.988Z,6.55
2023-02-12T10:51:53.452Z,6.75
2023-02-12T10:54:46.203Z,6.62
2023-02-12T10:57:18.697Z,6.83
2023-02-12T10:59:47.613Z,6.82
2023-02-12T11:02:29.097Z,6.94
2023-02-12T11:04:58.060Z,6.89
2023-02-12T11:07:25.960Z,7.15
2023-02-12T11:09:56.039Z,7.15
2023-02-12T11:12:25.555Z,7.16
2023-02-12T11:14:55.006Z,7.15
2023-02-12T11:17:26.802Z,6.91
2023-02-12T11:20:16.837Z,7.01
2023-02-12T11:23:00.329Z,7.08
2023-02-12T11:25:32.472Z,7.07
2023-02-12T11:28:05.511Z,7.01
2023-02-12T11:30:32.749Z,7.25
2023-02-12T11:33:32.888Z,7.34
2023-02-12T11:36:21.388Z,7.23
2023-02-12T11:38:53.003Z,7.43
2023-02-12T11:41:38.078Z,7.36
2023-02-12T11:44:13.562Z,7.30
2023-02-12T11:46:48.616Z,7.44
2023-02-12T11:49:32.137Z,7.62
2023-02-12T11:52:02.297Z,7.57
2023-02-12T11:54:34.496Z,7.51
2023-02-12T11:57:01.058Z,7.73
2023-02-12T11:59:36.852Z,7.87
2023-02-12T12:02:22.231Z,7.78
2023-02-12T12:04:52.300Z,7.97
2023-02-12T12:07:41.410Z,7.85
2023-02-12T12:10:13.269Z,8.19
2023-02-12T12:12:42.865Z,8.16
2023-02-12T12:15:52.015Z,7.91
2023-02-12T12:19:03.920Z,8.06
2023-02-12T12:21:36.888Z,7.99
2023-02-12T12:24:14.396Z,8.06
2023-02-12T12:26:47.487Z,8.06
2023-02-12T12:29:22.426Z,7.87
2023-02-12T12:31:54.131Z,7.81
2023-02-12T12:34:23.924Z,8.26
2023-02-12T12:37:12.875Z,8.32
2023-02-12T12:40:01.098Z,8.35
2023-02-12T12:43:00.298Z,8.30
2023-02-12T12:45:50.602Z,8.34
2023-02-12T12:48:32.874Z,8.44
2023-02-12T12:51:08.369Z,8.65
2023-02-12T12:53:51.088Z,8.57
2023-02-12T12:56:32.936Z,8.54
2023-02-12T12:59:21.465Z,8.61
2023-02-12T13:02:13.051Z,8.60
2023-02-12T13:05:21.268Z,8.76
2023-02-12T13:08:10.854Z,8.69
2023-02-12T13:10:49.681Z,8.64
2023-02-12T13:13:27.038Z,8.41
2023-02-12T13:16:33.928Z,8.77
2023-02-12T13:19:16.157Z,8.94
2023-02-12T13:21:59.769Z,8.81
2023-02-12T13:24:52.181Z,8.80
2023-02-12T13:27:28.884Z,8.80
2023-02-12T13:30:04.792Z,9.06
2023-02-12T13:33:00.455Z,8.76
2023-02-12T13:35:30.930Z,9.11
2023-02-12T13:37:59.072Z,9.11
2023-02-12T13:40:28.725Z,9.34
2023-02-12T13:43:36.757Z,9.22
2023-02-12T13:46:39.672Z,9.40
2023-02-12T13:49:08.955Z,9.50
2023-02-12T13:52:03.048Z,9.45
2023-02-12T13:54:43.193Z,9.43
2023-02-12T13:57:16.444Z,9.34
2023-02-12T14:00:01.600Z,9.23
2023-02-12T14:02:34.449Z,9.32
2023-02-12T14:05:05.728Z,9.36
2023-02-12T14:07:42.922Z,9.38
2023-02-12T14:10:27.986Z,9.52
2023-02-12T14:12:59.630Z,9.46
2023-02-12T14:15:34.638Z,9.46
2023-02-12T14:18:29.107Z,9.61
2023-02-12T14:21:28.030Z,9.61
2023-02-12T14:23:54.667Z,9.68
2023-02-12T14:26:23.739Z,9.40
2023-02-12T14:29:01.673Z,9.43
2023-02-12T14:31:28.338Z,9.49
2023-02-12T14:34:11.464Z,9.35
2023-02-12T14:36:41.444Z,9.42
2023-02-12T14:39:20.119Z,9.49
2023-02-12T14:41:48.304Z,9.29
2023-02-12T14:44:17.921Z,9.38
2023-02-12T14:46:56.012Z,9.37
2023-02-12T14:49:31.972Z,9.31
2023-02-12T14:52:17.863Z,9.24
2023-02-12T14:55:18.473Z,9.19
2023-02-12T14:57:45.473Z,9.38
2023-02-12T15:00:17.821Z,9.26
2023-02-12T15:02:59.904Z,9.51
2023-02-12T15:05:30.667Z,9.34
2023-02-12T15:08:07.634Z,9.28
2023-02-12T15:10:39.887Z,9.44
2023-02-12T15:14:14.703Z,9.26
2023-02-12T15:16:59.797Z,9.10
2023-02-12T15:19:44.395Z,9.33
2023-02-12T15:22:24.698Z,9.36
2023-02-12T15:24:51.741Z,9.23
2023-02-12T15:27:21.006Z,9.35
2023-02-12T15:29:53.905Z,9.22
2023-02-12T15:32:29.448Z,9.27
2023-02-12T15:34:56.829Z,9.26
2023-02-12T15:37:27.436Z,9.20
2023-02-12T15:39:57.964Z,9.28
2023-02-12T15:42:30.325Z,9.20
2023-02-12T15:45:18.692Z,9.07
2023-02-12T15:47:55.044Z,9.20
2023-02-12T15:50:22.868Z,9.35
2023-02-12T15:52:51.035Z,9.49
2023-02-12T15:55:21.081Z,9.59
2023-02-12T15:57:53.206Z,9.53
2023-02-12T16:00:43.412Z,9.83
2023-02-12T16:03:25.046Z,9.63
2023-02-12T16:05:54.745Z,9.63
2023-02-12T16:08:23.682Z,9.28
2023-02-12T16:10:53.921Z,8.97
2023-02-12T16:13:33.354Z,8.60
2023-02-12T16:16:12.317Z,8.55
2023-02-12T16:18:40.627Z,8.36
2023-02-12T16:21:16.552Z,8.34
2023-02-12T16:23:48.907Z,8.12
2023-02-12T16:26:24.097Z,7.92
2023-02-12T16:28:57.035Z,7.82
2023-02-12T16:31:26.480Z,7.53
2023-02-12T16:33:56.119Z,7.37
2023-02-12T16:36:22.822Z,7.28
2023-02-12T16:38:52.511Z,7.09
2023-02-12T16:41:19.824Z,6.90
2023-02-12T16:44:01.562Z,6.78
2023-02-12T16:46:45.368Z,6.45
2023-02-12T16:49:17.708Z,6.32
2023-02-12T16:51:45.741Z,6.26
2023-02-12T16:54:29.463Z,6.19
2023-02-12T16:56:56.680Z,6.22
2023-02-12T16:59:23.422Z,6.12
2023-02-12T17:02:02.314Z,6.12
2023-02-12T17:04:28.971Z,6.18
2023-02-12T17:06:55.834Z,6.21
2023-02-12T17:09:22.962Z,6.09
2023-02-12T17:11:49.938Z,5.99
2023-02-12T17:14:21.172Z,5.98
2023-02-12T17:16:48.668Z,5.88
2023-02-12T17:19:16.176Z,5.87
2023-02-12T17:21:46.255Z,5.85
2023-02-12T17:24:21.330Z,5.74
2023-02-12T17:26:50.596Z,5.48
2023-02-12T17:29:18.589Z,5.54
2023-02-12T17:31:45.794Z,5.36
2023-02-12T17:34:12.989Z,5.47
2023-02-12T17:36:39.659Z,5.23
2023-02-12T17:39:08.693Z,4.74
2023-02-12T17:41:35.668Z,4.76
2023-02-12T17:44:02.629Z,4.50
2023-02-12T17:46:29.997Z,4.79
2023-02-12T17:48:57.772Z,4.73
2023-02-12T17:51:25.531Z,4.58
2023-02-12T17:53:52.424Z,4.36
2023-02-12T17:56:21.660Z,4.14
2023-02-12T17:58:49.420Z,4.21
2023-02-12T18:01:18.662Z,3.88
2023-02-12T18:03:45.396Z,3.72
2023-02-12T18:06:14.214Z,3.69
2023-02-12T18:08:41.402Z,3.69
2023-02-12T18:11:10.242Z,3.68
2023-02-12T18:13:38.093Z,3.68
2023-02-12T18:16:10.088Z,3.65
2023-02-12T18:18:40.072Z,3.45
2023-02-12T18:21:12.454Z,3.40
2023-02-12T18:23:39.628Z,3.40
2023-02-12T18:26:12.355Z,3.58
2023-02-12T18:28:39.261Z,3.59
2023-02-12T18:31:07.072Z,3.70
2023-02-12T18:33:34.484Z,3.81
2023-02-12T18:36:04.493Z,3.70
2023-02-12T18:38:31.771Z,3.52
2023-02-12T18:41:00.512Z,3.35
2023-02-12T18:43:27.449Z,2.97
2023-02-12T18:45:55.279Z,2.83
2023-02-12T18:48:22.342Z,2.96
2023-02-12T18:50:51.757Z,2.94
2023-02-12T18:53:18.894Z,2.82
2023-02-12T18:55:45.678Z,2.65
2023-02-12T18:58:12.546Z,2.75
2023-02-12T19:00:39.157Z,2.65
2023-02-12T19:03:05.777Z,2.56
2023-02-12T19:05:32.364Z,2.66
2023-02-12T19:07:58.966Z,2.52
2023-02-12T19:10:25.689Z,2.50
2023-02-12T19:12:52.504Z,2.51
2023-02-12T19:15:19.223Z,2.57
2023-02-12T19:17:45.951Z,2.48
2023-02-12T19:20:14.691Z,2.55
2023-02-12T19:22:42.306Z,2.54
2023-02-12T19:25:09.635Z,2.54
2023-02-12T19:27:36.400Z,2.51
2023-02-12T19:30:04.833Z,2.43
2023-02-12T19:32:31.460Z,2.43
2023-02-12T19:34:58.111Z,2.51
2023-02-12T19:37:24.762Z,2.49
2023-02-12T19:39:51.522Z,2.49
2023-02-12T19:42:18.305Z,2.46
2023-02-12T19:44:46.632Z,2.49
2023-02-12T19:47:13.351Z,2.59
2023-02-12T19:49:40.172Z,2.44
2023-02-12T19:52:07.743Z,2.30
2023-02-12T19:54:35.129Z,2.25
2023-02-12T19:57:03.274Z,2.12
2023-02-12T19:59:29.978Z,2.15
2023-02-12T20:01:56.892Z,2.11
2023-02-12T20:04:24.565Z,2.22
2023-02-12T20:06:51.383Z,1.90
2023-02-12T20:09:19.271Z,2.04
2023-02-12T20:11:46.246Z,1.91
2023-02-12T20:14:14.370Z,2.06
2023-02-12T20:16:43.812Z,2.14
2023-02-12T20:19:26.329Z,2.11
2023-02-12T20:21:57.702Z,2.05
2023-02-12T20:24:27.173Z,2.23
2023-02-12T20:26:54.734Z,1.94
2023-02-12T20:29:22.130Z,1.83
2023-02-12T20:31:49.067Z,1.96
2023-02-12T20:34:17.590Z,1.81
2023-02-12T20:36:48.998Z,1.91
2023-02-12T20:39:20.460Z,2.02
2023-02-12T20:41:48.258Z,1.91
2023-02-12T20:44:18.771Z,1.87
2023-02-12T20:46:46.707Z,1.74
2023-02-12T20:49:15.452Z,1.93
2023-02-12T20:51:43.205Z,1.75
2023-02-12T20:54:10.604Z,1.94
2023-02-12T20:56:38.199Z,1.85
2023-02-12T20:59:06.215Z,1.76
2023-02-12T21:01:37.725Z,1.90
2023-02-12T21:04:10.611Z,2.00
2023-02-12T21:06:40.143Z,1.92
2023-02-12T21:09:09.694Z,1.85
2023-02-12T21:11:37.649Z,1.78
2023-02-12T21:14:20.827Z,1.93
2023-02-12T21:16:48.993Z,1.85
2023-02-12T21:19:15.906Z,1.91
2023-02-12T21:21:47.051Z,1.85
2023-02-12T21:24:17.812Z,1.80
2023-02-12T21:26:44.723Z,1.69
2023-02-12T21:29:11.837Z,1.81
2023-02-12T21:31:44.622Z,1.77
2023-02-12T21:34:15.419Z,1.70
2023-02-12T21:36:45.336Z,1.72
2023-02-12T21:39:15.328Z,1.60
2023-02-12T21:41:43.237Z,1.75
2023-02-12T21:44:15.614Z,1.79
2023-02-12T21:46:42.772Z,1.84
2023-02-12T21:49:10.456Z,1.66
2023-02-12T21:51:42.033Z,1.69
2023-02-12T21:54:11.938Z,1.78
2023-02-12T21:56:40.979Z,1.61
2023-02-12T21:59:09.187Z,1.74
2023-02-12T22:01:38.168Z,1.45
2023-02-12T22:04:06.853Z,1.64
2023-02-12T22:06:40.303Z,1.62
2023-02-12T22:09:08.877Z,1.45
2023-02-12T22:11:36.548Z,1.55
2023-02-12T22:14:04.615Z,1.67
2023-02-12T22:16:31.612Z,1.55
2023-02-12T22:19:00.206Z,1.55
2023-02-12T22:21:30.539Z,1.59
2023-02-12T22:24:00.134Z,1.42
2023-02-12T22:26:28.245Z,1.51
2023-02-12T22:28:57.898Z,1.55
2023-02-12T22:31:29.484Z,1.53
2023-02-12T22:33:59.278Z,1.37
2023-02-12T22:36:27.005Z,1.42
2023-02-12T22:38:56.151Z,1.43
2023-02-12T22:41:23.100Z,1.54
2023-02-12T22:43:50.014Z,1.44
2023-02-12T22:46:17.699Z,1.09
2023-02-12T22:48:44.877Z,1.24
2023-02-12T22:51:35.982Z,1.20
2023-02-12T22:54:03.170Z,1.13
2023-02-12T22:56:29.788Z,1.33
2023-02-12T22:58:58.448Z,1.41
2023-02-12T23:01:26.359Z,1.20
2023-02-12T23:03:53.507Z,1.18
2023-02-12T23:06:23.444Z,1.27
2023-02-12T23:08:55.003Z,1.24
2023-02-12T23:11:24.450Z,1.30
2023-02-12T23:13:52.154Z,1.30
2023-02-12T23:16:18.995Z,1.11
2023-02-12T23:18:45.615Z,1.17
2023-02-12T23:21:12.410Z,1.04
2023-02-12T23:23:39.132Z,1.05
2023-02-12T23:26:06.449Z,1.04
2023-02-12T23:28:33.119Z,1.07
2023-02-12T23:31:00.283Z,0.76
2023-02-12T23:33:27.230Z,0.92
2023-02-12T23:35:53.733Z,1.05
2023-02-12T23:38:20.332Z,1.02
2023-02-12T23:40:48.222Z,0.90
2023-02-12T23:43:15.189Z,0.95
2023-02-12T23:45:44.676Z,0.88
2023-02-12T23:48:11.743Z,0.91
2023-02-12T23:50:38.615Z,1.10
2023-02-12T23:53:05.307Z,1.13
2023-02-12T23:55:32.048Z,1.00
2023-02-12T23:57:58.587Z,0.82
